Time;durP1;ratioP1;P1;durP2;ratioP2;P2;SDS_P1;SDS_P2;PMS_P1;PMS_P2;Temp;Humidity;BMP_temperature;BMP_pressure;BME280_temperature;BME280_humidity;BME280_pressure;Samples;Min_cycle;Max_cycle;Signal;HPM_P1;HPM_P2
2022/03/11 00:00:53;;;;;;;26.67;16.25;;;2.30;99.90;;;;;;5091131;28;20090;-72
2022/03/11 00:03:24;;;;;;;26.23;15.55;;;2.30;99.90;;;;;;5069730;28;20468;-73
2022/03/11 00:05:52;;;;;;;25.63;15.70;;;2.20;99.90;;;;;;5052770;28;20076;-73
2022/03/11 00:08:19;;;;;;;27.23;16.55;;;2.20;99.90;;;;;;5056402;28;20067;-73
2022/03/11 00:10:51;;;;;;;27.35;17.17;;;2.10;99.90;;;;;;5082351;28;20040;-73
2022/03/11 00:13:24;;;;;;;21.63;14.93;;;2.10;99.90;;;;;;5079452;28;20036;-73
2022/03/11 00:15:51;;;;;;;22.92;14.82;;;2.10;99.90;;;;;;5062278;28;20521;-73
2022/03/11 00:18:23;;;;;;;24.55;15.50;;;2.00;99.90;;;;;;5058577;28;20044;-73
2022/03/11 00:20:56;;;;;;;24.80;16.48;;;2.00;99.90;;;;;;5052746;28;20052;-73
2022/03/11 00:23:28;;;;;;;27.77;16.53;;;2.00;99.90;;;;;;5067402;28;20048;-73
2022/03/11 00:26:00;;;;;;;25.08;15.63;;;1.90;99.90;;;;;;5037004;28;20040;-73
2022/03/11 00:28:32;;;;;;;28.25;15.73;;;1.90;99.90;;;;;;5090649;28;20532;-72
2022/03/11 00:31:07;;;;;;;25.48;15.45;;;1.80;99.90;;;;;;5062064;28;20036;-73
2022/03/11 00:33:39;;;;;;;23.23;14.05;;;1.90;99.90;;;;;;5082887;28;20058;-73
2022/03/11 00:36:11;;;;;;;26.52;15.15;;;1.80;99.90;;;;;;5074587;28;20093;-73
2022/03/11 00:38:43;;;;;;;24.90;14.90;;;1.80;99.90;;;;;;5060689;28;20048;-73
2022/03/11 00:41:15;;;;;;;25.65;14.40;;;1.80;99.90;;;;;;5067543;28;20134;-73
2022/03/11 00:43:41;;;;;;;27.70;14.98;;;1.70;99.90;;;;;;5055790;28;20059;-72
2022/03/11 00:46:13;;;;;;;25.17;14.57;;;1.70;99.90;;;;;;5050046;28;20060;-73
2022/03/11 00:48:40;;;;;;;25.52;13.98;;;1.70;99.90;;;;;;5061567;28;20473;-73
2022/03/11 00:51:07;;;;;;;23.65;13.90;;;1.60;99.90;;;;;;5064716;28;20039;-73
2022/03/11 00:53:39;;;;;;;23.42;13.70;;;1.60;99.90;;;;;;5063793;28;20049;-73
2022/03/11 00:56:06;;;;;;;24.77;13.68;;;1.50;99.90;;;;;;5056350;28;20094;-73
2022/03/11 00:58:38;;;;;;;23.13;13.60;;;1.50;99.90;;;;;;5056117;28;20433;-73
2022/03/11 01:01:10;;;;;;;23.38;13.18;;;1.40;99.90;;;;;;5061012;28;20408;-73
2022/03/11 01:03:41;;;;;;;24.13;13.88;;;1.40;99.90;;;;;;5075630;28;20079;-73
2022/03/11 01:06:08;;;;;;;24.20;12.55;;;1.40;99.90;;;;;;5075830;28;20083;-73
2022/03/11 01:08:35;;;;;;;20.15;12.88;;;1.40;99.90;;;;;;5060435;28;20107;-73
2022/03/11 01:11:11;;;;;;;21.88;12.65;;;1.40;99.90;;;;;;5061292;28;20047;-73
2022/03/11 01:13:43;;;;;;;23.10;13.20;;;1.30;99.90;;;;;;5050475;28;20055;-72
2022/03/11 01:16:10;;;;;;;21.70;12.50;;;1.30;99.90;;;;;;5055961;28;20037;-73
2022/03/11 01:18:36;;;;;;;20.27;12.55;;;1.20;99.90;;;;;;5074438;28;20050;-73
2022/03/11 01:21:10;;;;;;;20.35;11.50;;;1.20;99.90;;;;;;5066244;28;20075;-72
2022/03/11 01:23:42;;;;;;;18.70;11.73;;;1.20;99.90;;;;;;5055284;28;20102;-73
2022/03/11 01:26:10;;;;;;;19.65;10.88;;;1.20;99.90;;;;;;5038968;28;20048;-73
2022/03/11 01:28:42;;;;;;;;;;;1.10;99.90;;;;;;5057022;28;20056;-73
2022/03/11 01:31:11;;;;;;;18.65;10.68;;;1.10;99.90;;;;;;5055407;28;19978;-73
2022/03/11 01:33:45;;;;;;;16.77;9.55;;;1.00;99.90;;;;;;5055728;28;20037;-73
2022/03/11 01:36:16;;;;;;;15.88;9.57;;;1.00;99.90;;;;;;5087737;28;20041;-73
2022/03/11 01:38:43;;;;;;;19.00;9.00;;;1.00;99.90;;;;;;5077510;28;20036;-73
2022/03/11 01:41:11;;;;;;;13.40;8.63;;;1.00;99.90;;;;;;5082065;28;20043;-73
2022/03/11 01:43:59;;;;;;;14.10;9.13;;;0.90;99.90;;;;;;5061875;28;20059;-73
2022/03/11 01:46:31;;;;;;;15.93;9.35;;;0.80;99.90;;;;;;5054954;28;20040;-73
2022/03/11 01:49:00;;;;;;;14.73;8.70;;;0.80;99.90;;;;;;5055221;28;20399;-72
2022/03/11 01:51:29;;;;;;;14.57;8.80;;;0.80;99.90;;;;;;5073153;28;20041;-73
2022/03/11 01:54:01;;;;;;;13.85;9.25;;;0.70;99.90;;;;;;5069623;28;20077;-73
2022/03/11 01:56:34;;;;;;;13.60;8.13;;;0.70;99.90;;;;;;5067840;28;20044;-73
2022/03/11 01:59:10;;;;;;;12.95;7.93;;;0.60;99.90;;;;;;5055134;28;20240;-73
2022/03/11 02:01:37;;;;;;;13.07;9.05;;;0.60;99.90;;;;;;5037980;28;20091;-73
2022/03/11 02:04:09;;;;;;;11.10;7.32;;;0.60;98.50;;;;;;5054838;28;20565;-73
2022/03/11 02:06:41;;;;;;;11.60;7.35;;;0.60;99.00;;;;;;5072186;28;20070;-72
2022/03/11 02:09:12;;;;;;;11.88;6.68;;;0.50;98.50;;;;;;5065613;28;20089;-73
2022/03/11 02:11:47;;;;;;;13.70;7.40;;;0.50;98.70;;;;;;5092453;28;20044;-73
2022/03/11 02:14:19;;;;;;;11.45;7.85;;;0.50;98.80;;;;;;5057989;28;20096;-73
2022/03/11 02:16:51;;;;;;;11.13;6.13;;;0.50;97.70;;;;;;5090784;28;20040;-73
2022/03/11 02:19:24;;;;;;;10.50;6.18;;;0.50;97.90;;;;;;5071525;28;20048;-72
2022/03/11 02:21:59;;;;;;;8.20;5.10;;;0.40;97.60;;;;;;5070891;28;20044;-73
2022/03/11 02:24:27;;;;;;;10.18;5.70;;;0.40;97.40;;;;;;5056710;28;20143;-73
2022/03/11 02:26:55;;;;;;;11.23;5.72;;;0.30;96.60;;;;;;5091924;28;20101;-73
2022/03/11 02:29:27;;;;;;;8.27;5.53;;;0.30;96.90;;;;;;5057657;28;20039;-73
2022/03/11 02:31:53;;;;;;;8.70;5.55;;;0.30;96.40;;;;;;5078916;28;20494;-73
2022/03/11 02:34:20;;;;;;;8.88;5.15;;;0.20;96.40;;;;;;5053277;28;20074;-73
2022/03/11 02:36:52;;;;;;;8.90;5.38;;;0.30;96.30;;;;;;5055074;28;20040;-73
2022/03/11 02:39:25;;;;;;;10.23;4.78;;;0.20;96.10;;;;;;5053757;28;20567;-73
2022/03/11 02:41:52;;;;;;;10.77;5.63;;;0.20;95.30;;;;;;5069234;28;20080;-73
2022/03/11 02:44:24;;;;;;;10.85;4.78;;;0.20;95.30;;;;;;5056142;28;20147;-73
2022/03/11 02:46:51;;;;;;;8.25;5.07;;;0.10;95.30;;;;;;5058266;28;20430;-73
2022/03/11 02:49:23;;;;;;;10.82;6.70;;;0.20;95.10;;;;;;5037651;28;20040;-73
2022/03/11 02:51:58;;;;;;;10.57;6.43;;;0.10;94.80;;;;;;5069497;28;20044;-73
2022/03/11 02:54:30;;;;;;;8.52;5.63;;;0.10;94.20;;;;;;5090570;28;20040;-73
2022/03/11 02:56:56;;;;;;;8.77;5.30;;;0.10;94.40;;;;;;5074786;28;20132;-73
2022/03/11 02:59:28;;;;;;;8.73;4.50;;;0.00;94.50;;;;;;5063266;28;20442;-73
2022/03/11 03:01:55;;;;;;;8.52;5.35;;;0.00;94.20;;;;;;5059470;28;20083;-73
2022/03/11 03:04:21;;;;;;;13.73;4.65;;;0.00;94.20;;;;;;5056191;28;20131;-73
2022/03/11 03:06:48;;;;;;;7.95;4.95;;;-0.10;93.90;;;;;;5053002;28;20631;-73
2022/03/11 03:09:20;;;;;;;8.77;4.68;;;0.00;94.10;;;;;;5056058;28;20036;-73
2022/03/11 03:11:52;;;;;;;8.55;4.55;;;-0.10;94.10;;;;;;5053488;28;20044;-73
2022/03/11 03:14:20;;;;;;;6.95;4.00;;;-0.10;94.20;;;;;;5052571;28;20084;-73
2022/03/11 03:16:52;;;;;;;8.55;3.95;;;-0.10;94.10;;;;;;5062295;28;20075;-73
2022/03/11 03:19:19;;;;;;;9.00;4.53;;;-0.10;94.00;;;;;;5052852;28;20045;-73
2022/03/11 03:21:51;;;;;;;7.57;4.30;;;-0.20;93.80;;;;;;5070736;28;20091;-73
2022/03/11 03:24:23;;;;;;;8.30;4.10;;;-0.20;93.80;;;;;;5070344;28;20087;-73
2022/03/11 03:26:50;;;;;;;7.43;4.03;;;-0.20;94.00;;;;;;5052871;28;20033;-73
2022/03/11 03:29:17;;;;;;;6.45;4.07;;;-0.30;94.10;;;;;;5036186;28;20072;-73
2022/03/11 03:31:48;;;;;;;5.93;3.92;;;-0.30;94.20;;;;;;5070936;28;20060;-73
2022/03/11 03:34:20;;;;;;;5.43;4.05;;;-0.40;94.00;;;;;;5052315;28;20060;-73
2022/03/11 03:36:52;;;;;;;7.43;4.20;;;-0.30;94.00;;;;;;5070300;28;20638;-73
2022/03/11 03:39:24;;;;;;;7.47;3.92;;;-0.40;93.80;;;;;;5091096;28;20573;-73
2022/03/11 03:41:55;;;;;;;6.97;3.85;;;-0.50;93.70;;;;;;5066959;28;20052;-73
2022/03/11 03:44:23;;;;;;;7.50;4.70;;;-0.50;93.90;;;;;;5070212;28;20518;-73
2022/03/11 03:46:55;;;;;;;10.90;4.30;;;-0.50;93.80;;;;;;5061538;28;20142;-73
2022/03/11 03:49:28;;;;;;;6.85;4.60;;;-0.50;93.60;;;;;;5057694;28;20430;-73
2022/03/11 03:52:01;;;;;;;7.03;4.57;;;-0.60;93.50;;;;;;5052593;28;20555;-73
2022/03/11 03:54:33;;;;;;;8.07;4.20;;;-0.60;93.40;;;;;;5051951;28;20088;-73
2022/03/11 03:57:05;;;;;;;8.35;3.72;;;-0.60;93.20;;;;;;5071204;28;20090;-73
2022/03/11 03:59:39;;;;;;;7.15;3.88;;;-0.60;92.60;;;;;;5042345;28;20041;-73
2022/03/11 04:02:12;;;;;;;7.55;4.28;;;-0.60;92.50;;;;;;5052479;28;20746;-73
2022/03/11 04:04:44;;;;;;;7.90;4.20;;;-0.60;92.60;;;;;;5070062;28;20478;-73
2022/03/11 04:07:11;;;;;;;6.82;3.85;;;-0.70;92.30;;;;;;5053520;28;20083;-73
2022/03/11 04:09:45;;;;;;;7.55;4.75;;;-0.70;92.10;;;;;;5073187;28;20818;-72
2022/03/11 04:12:19;;;;;;;5.45;3.65;;;-0.70;92.30;;;;;;5068619;28;20036;-73
2022/03/11 04:14:46;;;;;;;6.95;4.10;;;-0.70;92.50;;;;;;5076096;28;20097;-73
2022/03/11 04:17:13;;;;;;;8.90;5.45;;;-0.70;92.40;;;;;;5094837;28;20114;-73
2022/03/11 04:19:45;;;;;;;12.38;4.82;;;-0.80;92.40;;;;;;5056864;28;20071;-73
2022/03/11 04:22:11;;;;;;;7.22;4.57;;;-0.80;93.00;;;;;;5074949;28;20124;-73
2022/03/11 04:24:43;;;;;;;8.35;4.53;;;-0.90;92.90;;;;;;5081603;28;20067;-73
2022/03/11 04:27:15;;;;;;;8.00;5.13;;;-0.90;92.80;;;;;;5066983;28;20054;-72
2022/03/11 04:29:47;;;;;;;8.23;4.55;;;-0.90;92.40;;;;;;5061570;28;20487;-73
2022/03/11 04:32:18;;;;;;;8.43;4.32;;;-1.00;92.50;;;;;;5074481;28;20075;-74
2022/03/11 04:34:47;;;;;;;8.15;4.70;;;-1.00;92.80;;;;;;5071394;28;20047;-73
2022/03/11 04:37:19;;;;;;;8.35;4.50;;;-1.00;92.60;;;;;;5074131;28;20556;-73
2022/03/11 04:39:50;;;;;;;7.63;4.63;;;-1.00;92.30;;;;;;5094745;28;20119;-73
2022/03/11 04:42:17;;;;;;;7.28;4.55;;;-1.00;92.40;;;;;;5080562;28;20101;-73
2022/03/11 04:44:44;;;;;;;8.32;4.13;;;-1.00;92.70;;;;;;5067406;28;20072;-73
2022/03/11 04:47:16;;;;;;;8.60;4.40;;;-1.10;92.60;;;;;;5074330;28;20068;-73
2022/03/11 04:49:43;;;;;;;7.90;5.20;;;-1.10;92.70;;;;;;5065612;28;20092;-73
2022/03/11 04:52:15;;;;;;;9.00;5.60;;;-1.10;92.80;;;;;;5089485;28;20537;-73
2022/03/11 04:54:42;;;;;;;7.38;4.97;;;-1.10;92.80;;;;;;5055701;28;20036;-73
2022/03/11 04:57:14;;;;;;;8.50;5.18;;;-1.10;93.00;;;;;;5090970;28;20119;-73
2022/03/11 04:59:41;;;;;;;8.32;5.22;;;-1.10;92.90;;;;;;5073903;28;20068;-73
2022/03/11 05:02:08;;;;;;;10.48;4.82;;;-1.10;93.00;;;;;;5059108;28;20470;-73
2022/03/11 05:04:35;;;;;;;8.07;4.70;;;-1.20;93.30;;;;;;5092392;28;20040;-73
2022/03/11 05:07:07;;;;;;;13.27;6.05;;;-1.20;93.40;;;;;;5086400;28;20063;-73
2022/03/11 05:09:39;;;;;;;10.15;6.18;;;-1.20;93.70;;;;;;5075910;28;20387;-72
2022/03/11 05:12:11;;;;;;;11.00;4.38;;;-1.20;93.90;;;;;;5074832;28;20032;-72
2022/03/11 05:14:38;;;;;;;9.55;5.30;;;-1.20;93.90;;;;;;5075538;28;20539;-71
2022/03/11 05:17:10;;;;;;;9.02;5.03;;;-1.30;94.10;;;;;;5074965;28;20093;-72
2022/03/11 05:19:42;;;;;;;10.20;5.30;;;-1.30;94.10;;;;;;5067811;28;20545;-72
2022/03/11 05:22:14;;;;;;;11.65;5.60;;;-1.30;94.10;;;;;;5075302;28;20048;-73
2022/03/11 05:24:41;;;;;;;7.20;4.78;;;-1.40;94.40;;;;;;5057087;28;20040;-73
2022/03/11 05:27:13;;;;;;;8.05;5.15;;;-1.40;94.50;;;;;;5089800;28;20543;-73
2022/03/11 05:29:45;;;;;;;9.38;5.05;;;-1.40;94.40;;;;;;5084328;28;20086;-73
2022/03/11 05:32:14;;;;;;;8.82;4.78;;;-1.40;94.50;;;;;;5088619;28;20035;-72
2022/03/11 05:34:42;;;;;;;9.38;5.22;;;-1.40;94.60;;;;;;5075815;28;20070;-73
2022/03/11 05:37:15;;;;;;;10.02;5.28;;;-1.40;94.80;;;;;;5059508;28;20052;-73
2022/03/11 05:39:47;;;;;;;9.18;5.35;;;-1.40;94.90;;;;;;5059544;28;20130;-74
2022/03/11 05:42:19;;;;;;;7.45;4.78;;;-1.50;95.00;;;;;;5090306;28;20127;-73
2022/03/11 05:44:52;;;;;;;11.05;6.40;;;-1.50;95.10;;;;;;5076060;28;20123;-73
2022/03/11 05:47:24;;;;;;;13.18;6.28;;;-1.50;95.50;;;;;;5083883;28;20501;-73
2022/03/11 05:49:56;;;;;;;11.38;6.10;;;-1.50;95.30;;;;;;5094693;28;20541;-73
2022/03/11 05:52:23;;;;;;;10.95;7.22;;;-1.50;96.70;;;;;;5078792;28;20125;-73
2022/03/11 05:54:50;;;;;;;10.95;6.63;;;-1.50;96.10;;;;;;5057818;28;20093;-73
2022/03/11 05:57:21;;;;;;;14.18;6.47;;;-1.50;96.00;;;;;;5092166;28;20090;-73
2022/03/11 05:59:53;;;;;;;13.60;8.20;;;-1.50;96.20;;;;;;5074272;28;20394;-73
2022/03/11 06:02:25;;;;;;;11.13;8.00;;;-1.50;96.20;;;;;;5042034;28;20067;-72
2022/03/11 06:04:57;;;;;;;10.98;8.18;;;-1.50;96.40;;;;;;5094049;28;20738;-73
2022/03/11 06:07:28;;;;;;;10.70;6.50;;;-1.50;96.40;;;;;;5074056;28;20075;-73
2022/03/11 06:10:01;;;;;;;13.43;8.35;;;-1.50;96.40;;;;;;5062446;28;20206;-72
2022/03/11 06:12:29;;;;;;;10.75;7.20;;;-1.50;96.50;;;;;;5041210;28;20048;-72
2022/03/11 06:15:14;;;;;;;11.48;6.13;;;-1.50;96.40;;;;;;5080523;28;21022;-73
2022/03/11 06:17:46;;;;;;;10.77;6.28;;;-1.50;96.60;;;;;;5079046;28;20055;-72
2022/03/11 06:20:21;;;;;;;12.55;6.15;;;-1.50;96.70;;;;;;5069668;28;20713;-73
2022/03/11 06:22:50;;;;;;;12.35;6.75;;;-1.50;96.40;;;;;;5056808;28;20052;-73
2022/03/11 06:25:21;;;;;;;11.30;5.82;;;-1.50;96.30;;;;;;5074594;28;20561;-73
2022/03/11 06:27:48;;;;;;;9.70;5.82;;;-1.50;96.60;;;;;;5067126;28;20449;-73
2022/03/11 06:30:20;;;;;;;10.77;6.50;;;-1.50;96.90;;;;;;5090578;28;20543;-73
2022/03/11 06:32:52;;;;;;;11.82;6.20;;;-1.50;96.90;;;;;;5080927;28;20063;-73
2022/03/11 06:35:19;;;;;;;13.20;6.97;;;-1.40;96.70;;;;;;5062015;28;20055;-73
2022/03/11 06:37:51;;;;;;;11.32;6.10;;;-1.40;96.60;;;;;;5077049;28;20062;-73
2022/03/11 06:40:19;;;;;;;10.38;5.47;;;-1.40;96.70;;;;;;5054377;28;20131;-72
2022/03/11 06:42:51;;;;;;;10.43;6.18;;;-1.40;96.70;;;;;;5054181;28;20502;-72
2022/03/11 06:45:18;;;;;;;10.13;6.25;;;-1.40;96.70;;;;;;5060885;28;20036;-73
2022/03/11 06:47:49;;;;;;;12.60;8.50;;;-1.30;97.20;;;;;;5077267;28;20089;-73
2022/03/11 06:50:18;;;;;;;11.52;7.43;;;-1.30;96.90;;;;;;5059945;28;20067;-73
2022/03/11 06:52:46;;;;;;;12.48;7.43;;;-1.20;97.30;;;;;;5061615;28;20032;-73
2022/03/11 06:55:18;;;;;;;10.57;6.35;;;-1.20;97.30;;;;;;5092280;28;20028;-73
2022/03/11 06:57:50;;;;;;;10.43;5.53;;;-1.20;96.90;;;;;;5061017;28;20134;-73
2022/03/11 07:00:17;;;;;;;12.27;6.90;;;-1.20;97.00;;;;;;5072570;28;20077;-73
2022/03/11 07:02:48;;;;;;;12.25;7.43;;;-1.10;97.60;;;;;;5081231;28;20047;-73
2022/03/11 07:05:20;;;;;;;10.38;6.50;;;-1.10;97.10;;;;;;5078990;28;20577;-73
2022/03/11 07:07:47;;;;;;;13.90;7.57;;;-1.00;97.10;;;;;;5063998;28;20089;-73
2022/03/11 07:10:16;;;;;;;10.45;7.35;;;-0.90;97.00;;;;;;5081783;28;20036;-73
2022/03/11 07:12:48;;;;;;;11.88;7.05;;;-0.90;97.10;;;;;;5091079;28;20040;-73
2022/03/11 07:15:20;;;;;;;10.55;7.43;;;-0.80;97.20;;;;;;5091574;28;20521;-72
2022/03/11 07:17:53;;;;;;;10.90;7.72;;;-0.70;97.10;;;;;;5062662;28;20469;-72
2022/03/11 07:20:34;;;;;;;12.43;6.93;;;-0.60;96.70;;;;;;5052513;28;20050;-72
2022/03/11 07:23:01;;;;;;;14.10;6.80;;;-0.60;96.90;;;;;;5089919;28;20093;-72
2022/03/11 07:25:28;;;;;;;10.82;6.60;;;-0.50;96.80;;;;;;5059458;28;20049;-74
2022/03/11 07:27:55;;;;;;;12.10;6.90;;;-0.50;96.90;;;;;;5071382;28;20498;-73
2022/03/11 07:30:26;;;;;;;10.25;5.85;;;-0.40;96.90;;;;;;5053376;28;20078;-73
2022/03/11 07:32:58;;;;;;;14.07;6.85;;;-0.40;96.80;;;;;;5037077;28;20838;-74
2022/03/11 07:35:30;;;;;;;11.38;5.97;;;-0.30;96.80;;;;;;5053667;28;20098;-74
2022/03/11 07:38:03;;;;;;;11.38;6.68;;;-0.30;96.60;;;;;;5056961;28;20036;-74
2022/03/11 07:40:35;;;;;;;13.13;6.55;;;-0.20;96.50;;;;;;5053966;28;20067;-74
2022/03/11 07:43:02;;;;;;;11.73;6.30;;;-0.10;96.40;;;;;;5052374;28;20052;-73
2022/03/11 07:45:30;;;;;;;11.73;7.13;;;0.00;96.20;;;;;;5080388;28;20478;-74
2022/03/11 07:48:04;;;;;;;11.02;6.93;;;0.00;96.50;;;;;;5080967;28;20044;-74
2022/03/11 07:50:38;;;;;;;14.45;7.30;;;0.10;96.70;;;;;;5077419;28;20434;-73
2022/03/11 07:53:11;;;;;;;12.00;7.13;;;0.20;96.40;;;;;;5072338;28;20036;-73
2022/03/11 07:55:39;;;;;;;11.38;6.78;;;0.30;96.30;;;;;;5053335;28;20506;-73
2022/03/11 07:58:06;;;;;;;13.13;6.78;;;0.40;95.80;;;;;;5067704;28;20165;-73
2022/03/11 08:00:41;;;;;;;12.07;7.13;;;0.40;95.70;;;;;;5071481;28;20135;-73
2022/03/11 08:03:13;;;;;;;11.80;6.55;;;0.50;95.60;;;;;;5072366;28;20067;-73
2022/03/11 08:05:45;;;;;;;11.48;6.60;;;0.60;95.40;;;;;;5039129;28;20045;-73
2022/03/11 08:08:17;;;;;;;11.27;7.35;;;0.70;95.90;;;;;;5054023;28;20461;-73
2022/03/11 08:10:44;;;;;;;12.27;7.10;;;0.80;95.70;;;;;;5071135;28;20074;-73
2022/03/11 08:13:16;;;;;;;13.05;6.63;;;0.90;95.50;;;;;;5053258;28;20052;-73
2022/03/11 08:15:43;;;;;;;14.00;6.78;;;1.00;95.20;;;;;;5052810;28;20049;-73
2022/03/11 08:18:15;;;;;;;10.50;6.00;;;1.10;95.10;;;;;;5070772;28;20060;-73
2022/03/11 08:20:42;;;;;;;11.73;6.80;;;1.20;95.10;;;;;;5055218;28;20499;-74
2022/03/11 08:23:14;;;;;;;11.18;7.20;;;1.30;94.70;;;;;;5071562;28;20044;-74
2022/03/11 08:25:46;;;;;;;12.98;7.28;;;1.40;94.60;;;;;;5072874;28;20135;-73
2022/03/11 08:28:13;;;;;;;11.52;6.82;;;1.50;94.80;;;;;;5056135;28;20130;-73
2022/03/11 08:30:45;;;;;;;10.70;6.63;;;1.60;94.70;;;;;;5087123;28;20044;-73
2022/03/11 08:33:14;;;;;;;11.68;7.28;;;1.60;94.50;;;;;;5090991;28;20115;-73
2022/03/11 08:35:40;;;;;;;13.05;7.18;;;1.70;94.20;;;;;;5090223;28;20074;-73
2022/03/11 08:38:12;;;;;;;11.73;7.20;;;1.80;93.80;;;;;;5062092;28;20086;-73
2022/03/11 08:40:44;;;;;;;13.23;7.53;;;1.90;93.90;;;;;;5070576;28;20086;-73
2022/03/11 08:43:16;;;;;;;10.52;6.55;;;2.00;93.70;;;;;;5069923;28;20394;-73
2022/03/11 08:45:43;;;;;;;12.15;7.30;;;2.20;93.50;;;;;;5052253;28;20102;-73
2022/03/11 08:48:11;;;;;;;26.95;10.98;;;2.30;93.20;;;;;;5069058;28;20041;-73
2022/03/11 08:50:42;;;;;;;15.63;9.02;;;2.40;93.00;;;;;;5052545;28;20086;-73
2022/03/11 08:53:14;;;;;;;13.55;7.25;;;2.50;93.10;;;;;;5052999;28;20048;-73
2022/03/11 08:55:46;;;;;;;16.42;9.38;;;2.60;92.70;;;;;;5075767;28;20593;-74
2022/03/11 08:58:19;;;;;;;18.48;7.88;;;2.70;93.00;;;;;;5094373;28;20505;-73
2022/03/11 09:00:51;;;;;;;11.55;7.75;;;2.80;92.80;;;;;;5076491;28;20068;-73
2022/03/11 09:03:19;;;;;;;14.43;7.35;;;2.90;92.30;;;;;;5070386;28;20084;-73
2022/03/11 09:05:45;;;;;;;15.68;9.07;;;3.00;92.10;;;;;;5064795;28;20067;-73
2022/03/11 09:08:12;;;;;;;12.43;7.05;;;3.10;92.20;;;;;;5075838;28;20079;-73
2022/03/11 09:10:44;;;;;;;13.68;7.50;;;3.20;92.00;;;;;;5094131;28;20122;-73
2022/03/11 09:13:12;;;;;;;21.80;10.52;;;3.30;91.80;;;;;;5071932;28;20190;-73
2022/03/11 09:15:44;;;;;;;19.70;10.07;;;3.40;91.30;;;;;;5065213;28;20123;-73
2022/03/11 09:18:16;;;;;;;42.88;20.83;;;3.50;91.30;;;;;;5081215;28;20067;-73
2022/03/11 09:20:47;;;;;;;52.15;22.55;;;3.60;91.90;;;;;;5073332;28;20613;-73
2022/03/11 09:23:14;;;;;;;16.40;9.50;;;3.70;91.20;;;;;;5073078;28;20457;-73
2022/03/11 09:25:46;;;;;;;15.68;7.65;;;3.80;91.10;;;;;;5055477;28;20139;-73
2022/03/11 09:28:12;;;;;;;15.88;8.02;;;3.90;90.60;;;;;;5055872;28;20520;-73
2022/03/11 09:30:44;;;;;;;23.27;12.38;;;4.00;90.80;;;;;;5073477;28;20124;-74
2022/03/11 09:33:16;;;;;;;16.95;8.60;;;4.10;90.70;;;;;;5055350;28;20171;-73
2022/03/11 09:35:48;;;;;;;19.98;9.15;;;4.10;90.40;;;;;;5061576;28;20059;-73
2022/03/11 09:38:15;;;;;;;10.88;7.60;;;4.30;90.00;;;;;;5075843;28;20078;-73
2022/03/11 09:40:47;;;;;;;17.70;8.70;;;4.40;90.00;;;;;;5059181;28;20129;-73
2022/03/11 09:43:15;;;;;;;12.43;7.00;;;4.50;90.10;;;;;;5075212;28;20089;-73
2022/03/11 09:45:47;;;;;;;12.30;7.00;;;4.60;88.90;;;;;;5073299;28;20036;-73
2022/03/11 09:48:19;;;;;;;12.95;7.40;;;4.60;88.80;;;;;;5055245;28;20503;-73
2022/03/11 09:50:51;;;;;;;13.18;7.90;;;4.60;88.40;;;;;;5072956;28;20040;-74
2022/03/11 09:53:23;;;;;;;15.85;7.90;;;4.80;87.90;;;;;;5065849;28;20132;-74
2022/03/11 09:55:55;;;;;;;13.45;7.75;;;4.90;87.90;;;;;;5063789;28;20127;-74
2022/03/11 09:58:22;;;;;;;13.52;8.05;;;5.00;87.90;;;;;;5091191;28;20582;-74
2022/03/11 10:00:49;;;;;;;12.18;7.60;;;5.10;87.20;;;;;;5074864;28;20043;-73
2022/03/11 10:03:22;;;;;;;13.27;7.97;;;5.20;88.50;;;;;;5074541;28;20063;-73
2022/03/11 10:05:57;;;;;;;13.70;7.50;;;5.40;87.00;;;;;;5059816;28;20048;-73
2022/03/11 10:08:38;;;;;;;10.85;7.47;;;5.50;87.10;;;;;;5092796;28;20043;-73
2022/03/11 10:11:19;;;;;;;13.93;8.52;;;5.60;84.10;;;;;;5061206;28;20051;-73
2022/03/11 10:13:50;;;;;;;12.52;8.48;;;5.60;85.50;;;;;;5054238;28;20048;-73
2022/03/11 10:16:25;;;;;;;15.57;9.52;;;5.70;84.20;;;;;;5054796;28;20131;-73
2022/03/11 10:19:00;;;;;;;14.98;8.32;;;5.80;84.90;;;;;;5061055;28;20646;-73
2022/03/11 10:21:35;;;;;;;11.98;8.35;;;5.90;83.60;;;;;;5053733;28;20037;-73
2022/03/11 10:24:05;;;;;;;13.75;7.53;;;6.00;83.80;;;;;;5072640;28;20072;-73
2022/03/11 10:26:41;;;;;;;11.63;7.32;;;6.10;82.30;;;;;;5055821;28;20056;-73
2022/03/11 10:29:18;;;;;;;11.43;7.28;;;6.20;82.80;;;;;;5068667;28;20561;-73
2022/03/11 10:31:47;;;;;;;15.57;7.75;;;6.30;81.80;;;;;;5059308;28;20040;-73
2022/03/11 10:34:27;;;;;;;14.73;7.70;;;6.40;81.50;;;;;;5073359;28;20032;-74
2022/03/11 10:37:15;;;;;;;12.63;8.30;;;6.50;80.40;;;;;;5074118;28;20188;-74
2022/03/11 10:39:47;;;;;;;11.70;8.00;;;6.60;80.00;;;;;;5074365;28;20106;-73
2022/03/11 10:42:22;;;;;;;17.00;9.30;;;6.60;80.20;;;;;;5088864;28;20115;-73
2022/03/11 10:45:03;;;;;;;15.93;8.27;;;6.70;79.50;;;;;;5066146;28;20073;-73
2022/03/11 10:47:40;;;;;;;14.32;9.32;;;6.80;78.60;;;;;;5082063;28;20085;-73
2022/03/11 10:50:13;;;;;;;13.20;8.30;;;6.90;79.20;;;;;;5073928;28;20047;-73
2022/03/11 10:52:47;;;;;;;12.03;8.13;;;6.90;77.90;;;;;;5040624;28;20044;-73
2022/03/11 10:55:30;;;;;;;16.90;8.82;;;7.00;78.10;;;;;;5058255;28;20377;-73
2022/03/11 10:58:06;;;;;;;12.60;7.78;;;7.10;77.70;;;;;;5075067;28;20128;-73
2022/03/11 11:00:39;;;;;;;12.27;8.05;;;7.20;76.30;;;;;;5070534;28;20051;-73
2022/03/11 11:03:08;;;;;;;14.20;8.70;;;7.30;76.80;;;;;;5037435;28;20471;-73
2022/03/11 11:05:40;;;;;;;12.15;8.18;;;7.40;76.00;;;;;;5054938;28;20135;-74
2022/03/11 11:08:12;;;;;;;14.18;9.10;;;7.50;76.70;;;;;;5050534;28;20470;-74
2022/03/11 11:10:39;;;;;;;16.20;8.88;;;7.60;75.50;;;;;;5056826;28;20051;-73
2022/03/11 11:13:11;;;;;;;17.55;10.60;;;7.70;75.60;;;;;;5075400;28;20111;-74
2022/03/11 11:15:44;;;;;;;12.70;9.30;;;7.80;73.90;;;;;;5074784;28;20047;-74
2022/03/11 11:18:16;;;;;;;11.63;7.82;;;8.00;73.50;;;;;;5071621;28;20036;-74
2022/03/11 11:20:50;;;;;;;12.48;8.70;;;8.10;73.00;;;;;;5083701;28;20074;-73
2022/03/11 11:23:25;;;;;;;13.07;8.60;;;8.20;73.10;;;;;;5081047;28;20048;-74
2022/03/11 11:25:58;;;;;;;14.73;8.45;;;8.30;72.30;;;;;;5088042;28;20134;-73
2022/03/11 11:28:26;;;;;;;14.00;9.10;;;8.30;71.60;;;;;;5051806;28;20138;-73
2022/03/11 11:30:59;;;;;;;;;;;8.40;71.60;;;;;;5061140;28;20047;-73
2022/03/11 11:33:26;;;;;;;13.68;9.43;;;8.50;71.80;;;;;;5086917;28;19966;-73
2022/03/11 11:36:02;;;;;;;12.95;8.18;;;8.60;71.00;;;;;;5060728;28;20592;-73
2022/03/11 11:38:35;;;;;;;11.90;8.07;;;8.70;69.90;;;;;;5062316;28;20479;-73
2022/03/11 11:41:23;;;;;;;13.65;9.18;;;8.80;69.00;;;;;;5079506;28;20883;-73
2022/03/11 11:43:58;;;;;;;12.95;8.07;;;8.90;68.50;;;;;;5046842;28;20549;-73
2022/03/11 11:46:37;;;;;;;12.52;8.20;;;8.90;69.80;;;;;;5042879;28;20730;-73
2022/03/11 11:49:22;;;;;;;14.88;8.50;;;9.00;68.50;;;;;;5079234;28;20035;-73
2022/03/11 11:51:49;;;;;;;16.30;10.73;;;9.10;67.80;;;;;;5076675;28;20124;-73
2022/03/11 11:54:33;;;;;;;14.02;9.00;;;9.20;68.40;;;;;;5073352;28;20590;-73
2022/03/11 11:57:06;;;;;;;14.45;8.32;;;9.30;67.80;;;;;;5070651;28;20063;-73
2022/03/11 11:59:38;;;;;;;16.48;9.88;;;9.30;67.40;;;;;;5062607;28;20507;-73
2022/03/11 12:02:24;;;;;;;13.38;9.52;;;9.40;65.70;;;;;;5070291;28;20498;-73
2022/03/11 12:04:52;;;;;;;16.20;8.65;;;9.50;66.70;;;;;;5035943;28;20048;-73
2022/03/11 12:07:20;;;;;;;14.85;9.25;;;9.70;64.70;;;;;;5052132;28;20463;-73
2022/03/11 12:12:25;;;;;;;13.02;8.77;;;9.80;64.10;;;;;;5061362;28;20131;-73
2022/03/11 12:15:01;;;;;;;14.57;8.82;;;9.90;64.20;;;;;;5068070;28;20125;-73
2022/03/11 12:17:51;;;;;;;15.15;9.15;;;10.00;64.40;;;;;;5076860;28;20064;-73
2022/03/11 12:20:24;;;;;;;16.77;9.00;;;10.10;64.30;;;;;;5070249;28;20134;-73
2022/03/11 12:23:05;;;;;;;12.93;9.57;;;10.30;62.80;;;;;;5071834;28;20490;-73
2022/03/11 12:25:32;;;;;;;12.52;8.63;;;10.30;62.40;;;;;;5057039;28;20090;-73
2022/03/11 12:28:04;;;;;;;18.13;8.30;;;10.30;61.10;;;;;;5090454;28;20143;-73
2022/03/11 12:30:38;;;;;;;12.00;8.15;;;10.40;61.50;;;;;;5093789;28;20123;-74
2022/03/11 12:33:16;;;;;;;13.15;8.60;;;10.40;60.90;;;;;;5076974;28;20044;-74
2022/03/11 12:35:44;;;;;;;15.35;9.77;;;10.50;60.70;;;;;;5075596;28;20093;-73
2022/03/11 12:38:22;;;;;;;15.02;9.20;;;10.50;60.10;;;;;;5094687;28;20504;-73
2022/03/11 12:40:59;;;;;;;12.95;8.40;;;10.60;60.10;;;;;;5092998;28;20127;-73
2022/03/11 12:43:26;;;;;;;13.25;8.75;;;10.60;60.20;;;;;;5055706;28;20135;-74
2022/03/11 12:45:59;;;;;;;13.63;8.90;;;10.60;60.20;;;;;;5079801;28;20135;-74
2022/03/11 12:48:38;;;;;;;12.40;8.20;;;10.80;59.30;;;;;;5100762;28;20043;-73
2022/03/11 12:51:08;;;;;;;14.70;8.85;;;10.80;58.90;;;;;;5082118;28;20115;-73
2022/03/11 12:53:39;;;;;;;13.75;9.23;;;10.90;58.90;;;;;;5080255;28;20123;-74
2022/03/11 12:56:11;;;;;;;14.23;8.63;;;10.90;58.60;;;;;;5076129;28;20070;-74
2022/03/11 12:58:39;;;;;;;14.27;9.35;;;11.00;58.20;;;;;;5091494;28;20513;-73
2022/03/11 13:01:12;;;;;;;14.73;9.75;;;11.00;58.00;;;;;;5075866;28;20079;-73
2022/03/11 13:03:47;;;;;;;16.02;8.88;;;11.10;57.90;;;;;;5074354;28;20142;-73
2022/03/11 13:06:19;;;;;;;13.13;9.00;;;11.20;58.10;;;;;;5076144;28;20078;-74